Time;durP1;ratioP1;P1;durP2;ratioP2;P2;SDS_P1;SDS_P2;PMS_P1;PMS_P2;Temp;Humidity;BMP_temperature;BMP_pressure;BME280_temperature;BME280_humidity;BME280_pressure;Samples;Min_cycle;Max_cycle;Signal;HPM_P1;HPM_P2
2022/08/01 00:00:41;;;;;;;6.43;5.20;;;;;;;15.76;100.00;90908.56;5033638;28;20083;-65
2022/08/01 00:03:07;;;;;;;5.93;5.22;;;;;;;15.71;100.00;90908.81;5033608;28;20022;-66
2022/08/01 00:05:32;;;;;;;6.07;5.03;;;;;;;15.67;100.00;90913.31;5033489;28;20025;-66
2022/08/01 00:07:58;;;;;;;5.80;5.00;;;;;;;15.65;100.00;90918.22;5033367;28;20518;-66
2022/08/01 00:10:24;;;;;;;6.22;5.13;;;;;;;15.57;100.00;90914.50;5033417;28;20494;-66
2022/08/01 00:12:50;;;;;;;5.75;5.15;;;;;;;15.66;100.00;90916.34;5033330;28;20092;-66
2022/08/01 00:15:17;;;;;;;6.50;5.65;;;;;;;15.63;100.00;90912.44;5033086;28;20037;-66
2022/08/01 00:17:42;;;;;;;6.35;5.50;;;;;;;15.55;100.00;90910.63;5033104;28;20104;-66
2022/08/01 00:20:11;;;;;;;6.03;5.43;;;;;;;15.44;100.00;90906.84;5033272;28;20116;-66
2022/08/01 00:22:37;;;;;;;7.25;5.88;;;;;;;15.35;100.00;90914.25;5033172;28;20060;-66
2022/08/01 00:25:04;;;;;;;5.07;4.45;;;;;;;15.25;100.00;90908.22;5033136;28;20061;-66
2022/08/01 00:27:29;;;;;;;6.78;5.97;;;;;;;15.19;100.00;90914.94;5032967;28;20495;-66
2022/08/01 00:29:55;;;;;;;6.13;5.13;;;;;;;15.16;100.00;90912.91;5033044;28;20026;-66
2022/08/01 00:32:20;;;;;;;4.95;4.45;;;;;;;15.11;100.00;90910.44;5032891;28;20087;-67
2022/08/01 00:34:46;;;;;;;7.15;4.68;;;;;;;15.20;100.00;90911.13;5032937;28;20029;-67
2022/08/01 00:37:11;;;;;;;4.95;4.38;;;;;;;15.19;100.00;90914.94;5033102;28;20495;-66
2022/08/01 00:39:37;;;;;;;5.78;4.90;;;;;;;15.11;100.00;90904.31;5032784;28;20396;-67
2022/08/01 00:42:07;;;;;;;4.75;4.30;;;;;;;15.01;100.00;90913.59;5032848;28;20112;-66
2022/08/01 00:44:32;;;;;;;5.85;4.93;;;;;;;14.87;100.00;90908.56;5032821;28;20533;-66
2022/08/01 00:46:58;;;;;;;6.93;5.10;;;;;;;14.84;100.00;90905.78;5032767;28;20026;-66
2022/08/01 00:49:23;;;;;;;5.93;4.72;;;;;;;14.79;100.00;90905.97;5032228;28;20021;-66
2022/08/01 00:51:49;;;;;;;7.32;5.63;;;;;;;14.73;100.00;90905.44;5032597;28;20498;-65
2022/08/01 00:54:15;;;;;;;6.80;5.32;;;;;;;14.70;100.00;90908.78;5032585;28;20067;-67
2022/08/01 00:56:41;;;;;;;6.18;5.20;;;;;;;14.76;100.00;90907.44;5032618;28;20055;-66
2022/08/01 00:59:07;;;;;;;5.47;4.93;;;;;;;14.66;100.00;90902.50;5032474;28;20476;-66
2022/08/01 01:01:33;;;;;;;5.72;4.60;;;;;;;14.55;100.00;90907.53;5032479;28;20037;-67
2022/08/01 01:03:58;;;;;;;7.78;5.93;;;;;;;14.47;100.00;90888.88;5032450;28;20392;-67
2022/08/01 01:06:52;;;;;;;7.05;4.90;;;;;;;14.37;100.00;90895.44;5032472;28;20026;-67
2022/08/01 01:09:42;;;;;;;7.55;4.75;;;;;;;14.26;100.00;90891.63;5032285;28;20029;-67
2022/08/01 01:12:58;;;;;;;6.38;4.68;;;;;;;14.30;100.00;90889.84;5032329;28;20075;-67
2022/08/01 01:15:39;;;;;;;6.22;4.40;;;;;;;14.20;100.00;90890.25;5010157;28;20050;-67
2022/08/01 01:18:14;;;;;;;5.55;4.75;;;;;;;14.14;100.00;90881.66;5029971;28;20392;-67
2022/08/01 01:20:43;;;;;;;5.10;4.38;;;;;;;14.09;100.00;90882.66;5032146;28;20516;-67
2022/08/01 01:23:34;;;;;;;4.30;3.85;;;;;;;14.05;100.00;90886.34;5032121;28;20025;-67
2022/08/01 01:26:14;;;;;;;6.32;4.45;;;;;;;14.03;100.00;90889.31;5032103;28;20052;-67
2022/08/01 01:29:06;;;;;;;5.80;4.30;;;;;;;14.03;100.00;90891.97;5031934;28;20088;-67
2022/08/01 01:32:01;;;;;;;6.97;4.13;;;;;;;13.99;100.00;90885.75;5031862;28;20136;-67
2022/08/01 01:34:28;;;;;;;13.25;4.80;;;;;;;13.93;100.00;90884.38;5032005;28;20029;-68
2022/08/01 01:36:56;;;;;;;5.75;4.22;;;;;;;13.97;100.00;90882.63;5032133;28;20022;-67
2022/08/01 01:39:25;;;;;;;4.40;3.92;;;;;;;13.91;100.00;90875.91;5031811;28;20033;-67
2022/08/01 01:41:53;;;;;;;4.30;3.90;;;;;;;13.90;100.00;90879.72;5031823;28;20022;-67
2022/08/01 01:44:19;;;;;;;5.72;4.45;;;;;;;13.89;100.00;90878.16;5031757;28;20032;-67
2022/08/01 01:46:47;;;;;;;5.22;4.18;;;;;;;13.89;100.00;90872.81;5031724;28;20033;-68
2022/08/01 01:49:14;;;;;;;4.78;3.83;;;;;;;13.88;100.00;90881.13;5031637;28;20120;-67
2022/08/01 01:51:41;;;;;;;4.32;3.75;;;;;;;13.89;100.00;90880.03;5031386;28;20553;-67
2022/08/01 01:54:09;;;;;;;4.68;3.38;;;;;;;13.87;100.00;90868.88;5031374;28;20033;-68
2022/08/01 01:56:48;;;;;;;5.18;3.95;;;;;;;13.88;100.00;90886.47;5031460;28;20122;-68
2022/08/01 01:59:18;;;;;;;4.78;3.72;;;;;;;13.71;100.00;90872.16;5030829;28;20022;-68
2022/08/01 02:01:46;;;;;;;5.05;3.80;;;;;;;13.63;100.00;90882.94;5031381;28;20025;-68
2022/08/01 02:04:12;;;;;;;4.50;3.67;;;;;;;13.57;100.00;90878.88;5031469;28;20029;-67
2022/08/01 02:06:39;;;;;;;4.50;3.90;;;;;;;13.53;100.00;90886.00;5031395;28;20044;-67
2022/08/01 02:09:07;;;;;;;4.43;4.03;;;;;;;13.41;100.00;90884.84;5031260;28;20506;-67
2022/08/01 02:11:33;;;;;;;4.05;3.65;;;;;;;13.38;100.00;90888.16;5031248;28;20483;-67
2022/08/01 02:14:01;;;;;;;4.60;3.75;;;;;;;13.37;100.00;90880.47;5031302;28;20112;-67
2022/08/01 02:16:31;;;;;;;5.88;4.30;;;;;;;13.38;100.00;90882.03;5031057;28;20038;-67
2022/08/01 02:18:57;;;;;;;4.95;3.85;;;;;;;13.44;100.00;90886.88;5031221;28;20041;-67
2022/08/01 02:21:55;;;;;;;4.53;3.47;;;;;;;13.37;100.00;90883.91;5031191;28;20021;-69
2022/08/01 02:24:47;;;;;;;4.43;3.45;;;;;;;13.31;100.00;90887.91;5031282;28;20106;-67
2022/08/01 02:27:17;;;;;;;6.55;4.10;;;;;;;13.22;100.00;90884.50;5031108;28;20505;-68
2022/08/01 02:29:49;;;;;;;5.68;4.28;;;;;;;13.25;100.00;90875.03;5031105;28;20037;-67
2022/08/01 02:32:24;;;;;;;5.13;3.77;;;;;;;13.27;100.00;90870.97;5031148;28;20017;-67
2022/08/01 02:34:53;;;;;;;5.03;3.53;;;;;;;13.21;100.00;90864.22;5063162;28;20537;-67
2022/08/01 02:37:20;;;;;;;5.35;4.18;;;;;;;13.17;100.00;90871.31;5030955;28;20040;-67
2022/08/01 02:39:50;;;;;;;4.10;3.58;;;;;;;13.19;100.00;90871.78;5031262;28;20029;-68
2022/08/01 02:42:18;;;;;;;4.60;3.42;;;;;;;13.18;100.00;90867.56;5030644;28;20029;-69
2022/08/01 02:44:47;;;;;;;3.85;3.38;;;;;;;13.20;100.00;90873.34;5030972;28;20033;-68
2022/08/01 02:47:13;;;;;;;5.60;3.80;;;;;;;13.23;100.00;90874.59;5030624;28;20495;-68
2022/08/01 02:49:48;;;;;;;4.53;3.78;;;;;;;13.16;100.00;90867.06;5030901;28;20061;-69
2022/08/01 02:52:16;;;;;;;5.70;3.80;;;;;;;13.14;100.00;90863.94;5030789;28;20030;-68
2022/08/01 02:54:45;;;;;;;4.18;3.58;;;;;;;13.17;100.00;90860.63;5031051;28;20029;-69
2022/08/01 02:57:13;;;;;;;3.58;3.17;;;;;;;13.19;100.00;90863.78;5030808;28;20088;-68
2022/08/01 02:59:41;;;;;;;4.93;3.75;;;;;;;13.18;100.00;90870.22;5030807;28;20025;-68
2022/08/01 03:02:08;;;;;;;3.35;2.90;;;;;;;13.16;100.00;90856.41;5030735;28;20077;-69
2022/08/01 03:04:36;;;;;;;4.55;3.53;;;;;;;13.15;100.00;90862.84;5030755;28;20025;-67
2022/08/01 03:07:05;;;;;;;3.60;3.22;;;;;;;13.12;100.00;90860.81;5030721;28;20037;-66
2022/08/01 03:09:40;;;;;;;5.47;3.00;;;;;;;13.16;100.00;90872.41;5030504;28;20402;-68
2022/08/01 03:12:13;;;;;;;4.97;2.85;;;;;;;13.08;100.00;90868.69;5033639;28;20026;-68
2022/08/01 03:14:40;;;;;;;;;;;;;;;13.10;100.00;90871.84;5034900;28;20517;-67
2022/08/01 03:17:07;;;;;;;4.07;3.10;;;;;;;12.97;100.00;90866.75;5034140;28;19917;-67
2022/08/01 03:19:34;;;;;;;3.10;2.80;;;;;;;12.99;100.00;90872.53;5021596;28;20033;-67
2022/08/01 03:22:03;;;;;;;3.35;2.80;;;;;;;12.94;100.00;90862.84;5014273;28;20022;-68
2022/08/01 03:24:29;;;;;;;3.20;2.88;;;;;;;12.88;100.00;90864.88;5014389;28;20113;-67
2022/08/01 03:26:57;;;;;;;4.32;3.17;;;;;;;12.85;100.00;90860.19;5014449;28;20042;-69
2022/08/01 03:29:25;;;;;;;2.75;2.55;;;;;;;12.89;100.00;90863.78;5013987;28;20121;-68
2022/08/01 03:31:52;;;;;;;3.63;2.90;;;;;;;12.88;100.00;90861.44;5013904;28;20396;-67
2022/08/01 03:34:21;;;;;;;2.83;2.50;;;;;;;12.82;100.00;90855.50;5013830;28;20585;-68
2022/08/01 03:36:49;;;;;;;3.63;2.60;;;;;;;12.93;100.00;90868.47;5014253;28;20033;-67
2022/08/01 03:39:17;;;;;;;3.80;3.42;;;;;;;12.97;100.00;90862.19;5014142;28;20579;-67
2022/08/01 03:41:50;;;;;;;3.25;2.60;;;;;;;13.02;100.00;90871.88;5014179;28;20030;-68
2022/08/01 03:44:18;;;;;;;4.47;3.00;;;;;;;13.11;100.00;90869.94;5014160;28;20054;-68
2022/08/01 03:46:47;;;;;;;2.60;2.40;;;;;;;13.13;100.00;90867.72;5013957;28;20041;-67
2022/08/01 03:49:21;;;;;;;3.10;2.80;;;;;;;13.21;100.00;90861.56;5013784;28;20431;-68
2022/08/01 03:51:49;;;;;;;2.90;2.35;;;;;;;13.33;100.00;90866.97;5013768;28;20034;-67
2022/08/01 03:54:20;;;;;;;2.47;2.25;;;;;;;13.39;100.00;90867.56;5014140;28;20034;-67
2022/08/01 03:56:48;;;;;;;2.40;2.20;;;;;;;13.40;100.00;90866.44;5013886;28;20108;-68
2022/08/01 03:59:16;;;;;;;3.05;2.35;;;;;;;13.52;100.00;90860.38;5013746;28;20080;-67
2022/08/01 04:01:43;;;;;;;2.30;2.10;;;;;;;13.55;100.00;90870.41;5013813;28;20037;-67
2022/08/01 04:04:09;;;;;;;4.32;3.63;;;;;;;13.59;100.00;90857.97;5014044;28;20027;-68
2022/08/01 04:06:38;;;;;;;5.07;3.28;;;;;;;13.67;100.00;90857.09;5013649;28;20033;-67
2022/08/01 04:09:03;;;;;;;2.92;2.08;;;;;;;13.68;100.00;90861.34;5013456;28;20530;-67
2022/08/01 04:12:03;;;;;;;3.05;2.58;;;;;;;13.79;100.00;90870.53;5013978;28;20038;-68
2022/08/01 04:14:28;;;;;;;2.53;2.20;;;;;;;13.81;100.00;90865.63;5013542;28;20053;-68
2022/08/01 04:16:54;;;;;;;2.78;2.50;;;;;;;13.88;100.00;90865.84;5013321;28;20069;-68
2022/08/01 04:19:20;;;;;;;3.67;2.53;;;;;;;13.92;100.00;90869.47;5013394;28;20037;-67
2022/08/01 04:21:46;;;;;;;3.97;2.67;;;;;;;13.94;100.00;90864.56;5013310;28;20030;-67
2022/08/01 04:24:18;;;;;;;2.45;2.25;;;;;;;14.08;100.00;90867.72;5012730;28;20485;-68
2022/08/01 04:26:46;;;;;;;4.72;2.10;;;;;;;14.14;100.00;90864.81;5013276;28;20036;-67
2022/08/01 04:29:14;;;;;;;2.75;2.38;;;;;;;14.34;100.00;90875.44;5013236;28;20088;-67
2022/08/01 04:31:44;;;;;;;2.63;2.30;;;;;;;14.42;100.00;90868.44;5013190;28;20030;-68
2022/08/01 04:34:12;;;;;;;2.45;2.25;;;;;;;14.47;100.00;90872.81;5013473;28;20060;-68
2022/08/01 04:36:41;;;;;;;2.38;2.17;;;;;;;14.60;100.00;90877.09;5013141;28;20038;-68
2022/08/01 04:39:09;;;;;;;4.10;2.40;;;;;;;14.75;100.00;90883.69;5013254;28;20494;-67
2022/08/01 04:41:36;;;;;;;3.15;2.80;;;;;;;14.78;100.00;90875.75;5013157;28;20033;-67
2022/08/01 04:44:02;;;;;;;3.60;2.70;;;;;;;14.70;100.00;90868.63;5012976;28;20030;-67
2022/08/01 04:46:29;;;;;;;2.83;2.30;;;;;;;14.79;100.00;90873.84;5012955;28;20026;-67
2022/08/01 04:48:55;;;;;;;2.97;2.10;;;;;;;14.85;100.00;90873.31;5030077;28;20026;-68
2022/08/01 04:51:24;;;;;;;2.60;2.40;;;;;;;14.95;100.00;90872.06;5032575;28;20543;-67
2022/08/01 04:53:52;;;;;;;2.95;2.22;;;;;;;15.04;100.00;90875.41;5032454;28;20029;-67
2022/08/01 04:56:20;;;;;;;2.47;2.28;;;;;;;15.11;100.00;90880.97;5032476;28;20029;-67
2022/08/01 04:58:46;;;;;;;2.53;2.33;;;;;;;15.19;100.00;90890.03;5032336;28;20037;-67
2022/08/01 05:01:11;;;;;;;2.42;2.15;;;;;;;15.24;100.00;90877.16;5032264;28;20029;-67
2022/08/01 05:03:37;;;;;;;2.70;2.30;;;;;;;15.41;100.00;90873.44;5032185;28;20051;-67
2022/08/01 05:06:03;;;;;;;3.70;2.67;;;;;;;15.54;100.00;90868.84;5032361;28;20037;-67
2022/08/01 05:08:29;;;;;;;4.13;2.20;;;;;;;15.69;100.00;90860.09;5032194;28;20091;-67
2022/08/01 05:10:55;;;;;;;2.90;2.35;;;;;;;15.92;100.00;90860.34;5032079;28;20117;-67
2022/08/01 05:13:20;;;;;;;2.22;2.03;;;;;;;16.16;100.00;90856.78;5032177;28;20104;-68
2022/08/01 05:15:46;;;;;;;3.45;2.47;;;;;;;16.43;100.00;90865.91;5031940;28;20076;-67
2022/08/01 05:18:11;;;;;;;2.28;2.08;;;;;;;16.67;100.00;90856.94;5032000;28;20022;-67
2022/08/01 05:20:37;;;;;;;2.25;2.05;;;;;;;16.91;100.00;90867.50;5032109;28;20033;-67
2022/08/01 05:23:04;;;;;;;2.35;2.00;;;;;;;17.24;100.00;90869.78;5032047;28;20511;-68
2022/08/01 05:25:30;;;;;;;1.92;1.83;;;;;;;18.50;91.07;90863.13;5032180;28;20134;-67
2022/08/01 05:27:55;;;;;;;3.15;2.70;;;;;;;22.00;68.73;90864.09;5031761;28;20029;-67
2022/08/01 05:30:21;;;;;;;3.72;2.42;;;;;;;24.78;56.56;90861.41;5032123;28;20079;-67
2022/08/01 05:32:46;;;;;;;3.75;1.85;;;;;;;27.10;48.70;90868.97;5031688;28;20563;-67
2022/08/01 05:35:12;;;;;;;2.65;2.30;;;;;;;28.38;45.50;90870.81;5030783;28;20033;-67
2022/08/01 05:37:37;;;;;;;3.70;1.95;;;;;;;28.69;44.05;90869.44;5031547;28;20491;-68
2022/08/01 05:40:04;;;;;;;2.03;1.70;;;;;;;30.32;40.98;90873.19;5031538;28;20048;-67
2022/08/01 05:42:29;;;;;;;4.30;2.03;;;;;;;30.65;39.81;90875.88;5031765;28;20056;-67
2022/08/01 05:44:55;;;;;;;1.80;1.70;;;;;;;30.91;38.26;90871.22;5031689;28;20037;-66
2022/08/01 05:47:20;;;;;;;2.28;1.85;;;;;;;31.62;37.67;90873.88;5031446;28;20495;-67
2022/08/01 05:49:46;;;;;;;2.13;1.80;;;;;;;30.16;39.18;90873.22;5031581;28;20025;-66
2022/08/01 05:52:12;;;;;;;1.92;1.70;;;;;;;30.01;39.83;90866.53;5031362;28;20057;-67
2022/08/01 05:54:37;;;;;;;2.78;2.08;;;;;;;30.45;40.30;90873.22;5031484;28;20038;-67
2022/08/01 05:57:03;;;;;;;1.83;1.73;;;;;;;30.96;37.82;90879.72;5031356;28;20029;-67
2022/08/01 05:59:30;;;;;;;2.17;1.90;;;;;;;31.15;37.26;90883.47;5031133;28;20040;-67
2022/08/01 06:01:55;;;;;;;1.90;1.65;;;;;;;31.54;36.21;90876.81;5031321;28;20446;-68
2022/08/01 06:04:21;;;;;;;1.92;1.80;;;;;;;32.01;35.83;90878.13;5031412;28;20249;-69
2022/08/01 06:06:47;;;;;;;1.92;1.73;;;;;;;31.81;36.46;90881.13;5031094;28;20022;-71
2022/08/01 06:09:12;;;;;;;1.90;1.80;;;;;;;30.30;37.04;90872.09;5031209;28;20045;-72
2022/08/01 06:11:38;;;;;;;1.95;1.75;;;;;;;31.65;33.76;90870.22;5031146;28;20026;-71
2022/08/01 06:14:03;;;;;;;1.88;1.77;;;;;;;31.52;34.39;90853.72;5010557;28;20034;-73
2022/08/01 06:16:29;;;;;;;2.45;2.05;;;;;;;30.68;34.96;90875.78;5010854;28;20049;-72
2022/08/01 06:18:54;;;;;;;5.03;1.80;;;;;;;31.27;35.86;90871.75;5011069;28;20400;-69
2022/08/01 06:21:20;;;;;;;1.80;1.65;;;;;;;30.88;34.25;90872.09;5018914;28;20027;-68
2022/08/01 06:23:46;;;;;;;3.10;2.10;;;;;;;30.02;34.93;90874.31;5016085;28;20018;-70
2022/08/01 06:26:12;;;;;;;1.67;1.58;;;;;;;29.04;37.16;90872.69;5030879;28;20450;-69
2022/08/01 06:28:38;;;;;;;2.13;1.92;;;;;;;29.83;36.67;90864.22;5030295;28;20059;-70
2022/08/01 06:31:04;;;;;;;1.95;1.70;;;;;;;30.21;35.12;90866.44;5030618;28;20048;-70
2022/08/01 06:33:29;;;;;;;1.90;1.80;;;;;;;30.47;34.60;90864.59;5030456;28;20025;-69
2022/08/01 06:35:55;;;;;;;2.17;1.85;;;;;;;31.23;34.20;90868.34;5030736;28;20032;-70
2022/08/01 06:38:21;;;;;;;2.33;2.13;;;;;;;30.92;34.17;90861.75;5030608;28;20388;-69
2022/08/01 06:40:46;;;;;;;1.80;1.70;;;;;;;31.82;32.74;90869.69;5030505;28;20080;-70
2022/08/01 06:43:12;;;;;;;1.65;1.55;;;;;;;31.31;33.70;90868.13;5030025;28;20460;-69
2022/08/01 06:45:41;;;;;;;2.03;1.85;;;;;;;29.33;35.95;90862.63;5030614;28;20415;-69
2022/08/01 06:48:06;;;;;;;2.10;1.90;;;;;;;30.67;34.75;90868.75;5034688;28;20128;-68
2022/08/01 06:50:32;;;;;;;3.50;2.10;;;;;;;28.78;37.36;90866.91;5034687;28;20661;-69
2022/08/01 06:52:58;;;;;;;1.75;1.60;;;;;;;28.69;37.89;90857.72;5034669;28;20037;-68
2022/08/01 06:55:23;;;;;;;2.40;1.75;;;;;;;28.99;37.45;90867.69;5033449;28;20022;-71
2022/08/01 06:57:51;;;;;;;1.80;1.70;;;;;;;29.32;38.06;90872.03;5034101;28;20483;-68
2022/08/01 07:00:22;;;;;;;3.25;1.92;;;;;;;29.40;37.64;90856.97;5034385;28;20022;-69
2022/08/01 07:02:49;;;;;;;2.47;1.70;;;;;;;29.99;35.60;90853.25;5034497;28;20900;-68
2022/08/01 07:05:14;;;;;;;3.45;2.95;;;;;;;29.56;36.76;90852.75;5034651;28;20160;-69
2022/08/01 07:07:39;;;;;;;1.95;1.80;;;;;;;28.01;38.44;90864.44;5034359;28;20514;-69
2022/08/01 07:10:06;;;;;;;2.10;1.90;;;;;;;28.82;37.84;90862.13;5034422;28;20021;-69
2022/08/01 07:12:33;;;;;;;1.60;1.50;;;;;;;30.50;35.13;90856.25;5034020;28;20029;-69
2022/08/01 07:14:58;;;;;;;2.70;1.83;;;;;;;30.74;35.79;90854.03;5034355;28;20037;-71
2022/08/01 07:17:23;;;;;;;2.00;1.90;;;;;;;31.49;35.05;90852.63;5034167;28;20499;-68
2022/08/01 07:19:49;;;;;;;2.53;2.10;;;;;;;29.72;36.07;90855.50;5034250;28;20219;-69
2022/08/01 07:22:16;;;;;;;1.70;1.60;;;;;;;29.59;36.28;90858.13;5034197;28;20018;-68
2022/08/01 07:24:41;;;;;;;2.03;1.70;;;;;;;29.82;35.62;90854.44;5034533;28;20029;-68
2022/08/01 07:27:07;;;;;;;2.88;1.90;;;;;;;30.32;36.21;90861.44;5033560;28;20028;-68
2022/08/01 07:29:32;;;;;;;1.85;1.75;;;;;;;30.61;36.08;90854.00;5033391;28;20033;-70
2022/08/01 07:31:58;;;;;;;2.13;1.90;;;;;;;31.01;34.92;90850.91;5033789;28;20021;-69
2022/08/01 07:34:24;;;;;;;1.60;1.50;;;;;;;32.63;33.18;90870.94;5033998;28;20033;-68
2022/08/01 07:36:51;;;;;;;2.70;1.83;;;;;;;32.66;33.02;90853.50;5032568;28;20036;-68
2022/08/01 07:39:17;;;;;;;2.80;1.90;;;;;;;31.25;34.86;90862.41;5032277;28;20026;-70
2022/08/01 07:41:42;;;;;;;2.25;2.05;;;;;;;30.30;36.14;90855.63;5033090;28;20136;-69
2022/08/01 07:44:07;;;;;;;2.85;1.88;;;;;;;30.67;35.52;90852.28;5033765;28;20083;-67
2022/08/01 07:46:33;;;;;;;2.15;2.00;;;;;;;31.55;34.68;90850.84;5033807;28;20025;-68
2022/08/01 07:48:58;;;;;;;2.17;1.98;;;;;;;31.97;35.02;90853.50;5033237;28;20099;-69
2022/08/01 07:51:24;;;;;;;2.42;1.83;;;;;;;29.68;36.67;90843.84;5033428;28;20029;-67
2022/08/01 07:53:49;;;;;;;2.05;1.85;;;;;;;31.18;34.65;90846.13;5033376;28;20032;-71
2022/08/01 07:56:15;;;;;;;2.00;1.90;;;;;;;30.97;35.53;90844.75;5033696;28;20037;-69
2022/08/01 07:58:40;;;;;;;4.07;1.92;;;;;;;32.35;35.27;90845.19;5032221;28;20037;-68
2022/08/01 08:01:06;;;;;;;2.20;1.80;;;;;;;30.37;36.01;90847.97;5033626;28;20042;-68
2022/08/01 08:03:31;;;;;;;2.80;1.80;;;;;;;29.81;37.36;90852.91;5033531;28;20542;-68
2022/08/01 08:05:57;;;;;;;2.35;2.15;;;;;;;30.23;35.84;90842.06;5033613;28;20041;-68
2022/08/01 08:08:23;;;;;;;3.00;2.00;;;;;;;31.72;35.51;90839.72;5033473;28;20083;-68
2022/08/01 08:10:49;;;;;;;1.60;1.50;;;;;;;31.84;34.39;90848.00;5033413;28;20025;-67
2022/08/01 08:13:14;;;;;;;3.35;2.03;;;;;;;31.51;34.23;90843.94;5032732;28;20510;-67
2022/08/01 08:15:40;;;;;;;1.98;1.77;;;;;;;31.19;35.62;90842.94;5033142;28;20117;-67
2022/08/01 08:18:05;;;;;;;2.45;2.25;;;;;;;30.94;35.28;90838.16;5033094;28;20018;-67
2022/08/01 08:20:31;;;;;;;1.95;1.85;;;;;;;29.76;37.41;90845.97;5033222;28;20068;-69
2022/08/01 08:22:58;;;;;;;2.25;1.85;;;;;;;30.74;35.22;90848.53;5033131;28;20022;-68
2022/08/01 08:25:24;;;;;;;2.40;1.80;;;;;;;30.05;36.71;90837.81;5033052;28;20432;-69
2022/08/01 08:27:50;;;;;;;2.00;1.90;;;;;;;30.50;35.88;90848.00;5032912;28;20028;-68
2022/08/01 08:30:16;;;;;;;2.10;1.90;;;;;;;29.36;37.41;90839.09;5032988;28;20022;-67
2022/08/01 08:32:42;;;;;;;2.13;1.80;;;;;;;30.74;36.90;90843.03;5032886;28;20097;-67
2022/08/01 08:35:08;;;;;;;1.75;1.65;;;;;;;31.28;35.65;90843.06;5032601;28;20072;-67
2022/08/01 08:37:35;;;;;;;2.00;1.80;;;;;;;31.23;36.28;90840.84;5032747;28;20498;-67
2022/08/01 08:40:01;;;;;;;3.58;2.13;;;;;;;31.43;35.07;90835.16;5032825;28;20037;-67
2022/08/01 08:42:27;;;;;;;4.45;2.22;;;;;;;31.09;35.70;90846.75;5032955;28;20029;-67
2022/08/01 08:44:54;;;;;;;2.35;1.70;;;;;;;30.41;36.13;90848.63;5032702;28;20124;-67
2022/08/01 08:47:22;;;;;;;2.60;1.92;;;;;;;32.70;34.13;90847.88;5032482;28;20098;-67
2022/08/01 08:49:50;;;;;;;2.20;1.83;;;;;;;29.94;36.98;90842.78;5032242;28;20030;-67
2022/08/01 08:52:19;;;;;;;2.58;2.30;;;;;;;28.54;40.11;90851.75;5032496;28;20022;-67
2022/08/01 08:54:45;;;;;;;1.80;1.70;;;;;;;30.08;38.45;90828.72;5032417;28;20048;-67
2022/08/01 08:57:13;;;;;;;2.28;1.73;;;;;;;28.68;39.64;90846.00;5032112;28;20041;-67
2022/08/01 08:59:39;;;;;;;1.88;1.77;;;;;;;26.46;42.48;90836.25;5032366;28;20037;-67
2022/08/01 09:02:07;;;;;;;3.00;1.70;;;;;;;27.04;43.24;90848.78;5032384;28;20048;-67
2022/08/01 09:04:32;;;;;;;1.88;1.77;;;;;;;27.07;41.64;90828.84;5032405;28;20045;-68
2022/08/01 09:06:58;;;;;;;2.60;2.28;;;;;;;27.06;41.62;90835.47;5032309;28;20569;-68
2022/08/01 09:09:23;;;;;;;2.85;1.92;;;;;;;27.79;39.99;90828.50;5031815;28;20114;-68
2022/08/01 09:11:49;;;;;;;2.28;2.08;;;;;;;25.06;45.41;90834.03;5032176;28;20038;-67
2022/08/01 09:14:25;;;;;;;2.15;1.98;;;;;;;24.15;48.06;90836.03;5032176;28;20550;-67
2022/08/01 09:17:02;;;;;;;1.98;1.80;;;;;;;24.10;49.04;90837.19;5031752;28;20459;-68
2022/08/01 09:19:38;;;;;;;2.40;2.20;;;;;;;24.74;47.61;90831.47;5031730;28;20045;-68
2022/08/01 09:22:07;;;;;;;1.83;1.73;;;;;;;27.35;42.00;90829.59;5031991;28;20117;-68
2022/08/01 09:24:33;;;;;;;2.45;2.25;;;;;;;28.05;40.14;90837.78;5031851;28;20049;-67
2022/08/01 09:27:00;;;;;;;4.97;2.28;;;;;;;27.34;41.43;90822.59;5031510;28;20041;-68
2022/08/01 09:29:30;;;;;;;4.35;3.13;;;;;;;25.68;44.76;90813.31;5030428;28;20464;-68
2022/08/01 09:31:56;;;;;;;2.00;1.90;;;;;;;28.27;41.48;90835.47;5031726;28;20048;-67
2022/08/01 09:34:32;;;;;;;1.90;1.77;;;;;;;28.12;41.70;90836.91;5031820;28;20507;-68
2022/08/01 09:37:00;;;;;;;2.08;1.98;;;;;;;30.64;38.95;90830.41;5025756;28;20519;-68
2022/08/01 09:39:27;;;;;;;2.65;1.85;;;;;;;31.36;36.63;90840.09;5010966;28;20423;-67
2022/08/01 09:41:56;;;;;;;2.20;2.00;;;;;;;31.77;35.39;90829.00;5011836;28;20048;-67
2022/08/01 09:44:42;;;;;;;1.95;1.80;;;;;;;31.98;35.56;90830.25;5011620;28;20042;-67
2022/08/01 09:47:08;;;;;;;2.10;2.00;;;;;;;31.88;36.21;90815.66;5011297;28;20480;-66
2022/08/01 09:49:39;;;;;;;2.17;2.00;;;;;;;32.03;35.60;90815.16;5011487;28;20033;-66
2022/08/01 09:52:15;;;;;;;2.50;2.30;;;;;;;30.54;37.33;90812.97;5011688;28;20042;-72
2022/08/01 09:54:43;;;;;;;2.53;2.33;;;;;;;30.34;37.56;90818.63;5022949;28;20042;-70
2022/08/01 09:57:15;;;;;;;2.80;2.42;;;;;;;29.90;39.85;90822.91;5012265;28;20062;-70
2022/08/01 09:59:44;;;;;;;2.10;2.00;;;;;;;30.69;37.57;90816.91;5011400;28;20041;-70
2022/08/01 10:02:15;;;;;;;2.30;2.10;;;;;;;30.38;38.16;90810.31;5011445;28;20042;-70
2022/08/01 10:04:51;;;;;;;2.20;2.03;;;;;;;28.71;39.45;90817.00;5011680;28;20070;-69
2022/08/01 10:07:17;;;;;;;2.85;2.28;;;;;;;28.09;40.97;90822.13;5011310;28;20479;-70
2022/08/01 10:09:44;;;;;;;2.40;2.20;;;;;;;26.24;43.98;90801.03;5010439;28;20073;-69
2022/08/01 10:12:12;;;;;;;2.47;2.28;;;;;;;26.72;43.96;90813.72;5011209;28;20116;-70
2022/08/01 10:14:38;;;;;;;3.05;2.03;;;;;;;30.27;39.37;90812.56;5011262;28;20543;-72
2022/08/01 10:17:07;;;;;;;1.85;1.75;;;;;;;31.58;36.34;90807.97;5010897;28;20034;-70
2022/08/01 10:19:35;;;;;;;2.05;1.90;;;;;;;30.68;38.16;90817.34;5011023;28;20060;-71
2022/08/01 10:22:02;;;;;;;2.08;1.90;;;;;;;31.24;37.08;90809.44;5025626;28;20042;-70
2022/08/01 10:24:29;;;;;;;2.25;1.98;;;;;;;31.21;37.38;90815.00;5010962;28;20049;-71
2022/08/01 10:27:02;;;;;;;2.25;2.05;;;;;;;29.54;40.30;90811.28;5011247;28;20049;-70
2022/08/01 10:29:29;;;;;;;2.22;2.00;;;;;;;28.55;40.35;90818.47;5010821;28;20050;-69
2022/08/01 10:31:55;;;;;;;2.20;2.00;;;;;;;30.93;36.34;90806.41;5010461;28;20048;-70
2022/08/01 10:34:21;;;;;;;2.15;1.70;;;;;;;29.47;39.12;90799.28;5010680;28;20486;-70
2022/08/01 10:36:48;;;;;;;1.85;1.75;;;;;;;27.38;40.75;90796.75;5010505;28;20049;-70
2022/08/01 10:39:45;;;;;;;1.95;1.80;;;;;;;25.51;45.41;90803.34;5010701;28;20049;-71
2022/08/01 10:42:11;;;;;;;3.60;2.20;;;;;;;27.45;42.44;90804.03;5010975;28;20056;-70
2022/08/01 10:44:38;;;;;;;1.98;1.77;;;;;;;28.09;41.02;90807.63;5010958;28;20414;-72
2022/08/01 10:47:09;;;;;;;2.35;1.85;;;;;;;27.31;42.39;90812.50;5010868;28;20570;-71
2022/08/01 10:49:40;;;;;;;1.90;1.80;;;;;;;27.85;42.24;90798.72;5010890;28;20049;-70
2022/08/01 10:52:06;;;;;;;2.63;1.85;;;;;;;31.17;37.01;90800.59;5010721;28;20034;-70
2022/08/01 10:54:39;;;;;;;2.17;1.58;;;;;;;32.34;34.48;90796.81;5010504;28;20455;-70
2022/08/01 10:57:06;;;;;;;;;;;;;;;33.72;33.01;90803.13;5010872;28;20045;-69
2022/08/01 10:59:33;;;;;;;2.28;2.08;;;;;;;32.32;34.73;90796.47;5010805;28;19920;-71
2022/08/01 11:02:04;;;;;;;4.75;2.08;;;;;;;31.68;37.09;90798.59;5010874;28;20121;-70
2022/08/01 11:05:06;;;;;;;2.03;1.85;;;;;;;31.16;38.20;90799.06;5010789;28;20037;-71
2022/08/01 11:07:48;;;;;;;1.80;1.70;;;;;;;33.04;33.35;90800.22;5010572;28;20042;-71
2022/08/01 11:10:39;;;;;;;1.95;1.85;;;;;;;33.21;33.28;90804.28;5010280;28;20157;-72
2022/08/01 11:13:07;;;;;;;3.85;1.98;;;;;;;34.01;33.93;90794.47;5010368;28;20499;-72
2022/08/01 11:15:34;;;;;;;1.70;1.60;;;;;;;34.68;31.95;90793.59;5010613;28;20049;-71
2022/08/01 11:18:24;;;;;;;2.22;2.00;;;;;;;31.91;35.20;90799.47;5010788;28;20070;-71
2022/08/01 11:21:00;;;;;;;1.80;1.70;;;;;;;30.23;37.38;90800.91;5010796;28;20057;-72
2022/08/01 11:23:27;;;;;;;1.88;1.77;;;;;;;29.90;39.23;90781.75;5010729;28;20408;-71
2022/08/01 11:25:53;;;;;;;2.28;1.80;;;;;;;30.32;38.50;90773.63;5010752;28;20046;-70
2022/08/01 11:28:21;;;;;;;2.10;1.60;;;;;;;29.01;39.84;90772.16;5010655;28;20038;-70
2022/08/01 11:31:06;;;;;;;2.00;1.80;;;;;;;30.72;38.40;90773.28;5010833;28;20418;-71
2022/08/01 11:33:47;;;;;;;2.05;1.85;;;;;;;30.59;37.90;90770.47;5014091;28;20439;-71
2022/08/01 11:36:13;;;;;;;1.88;1.77;;;;;;;32.70;33.85;90779.03;5014591;28;20536;-70